KMSY Airport Information

Runway Information
Runway 02 Length 7001 ft width 150 ft
Elevation 3 ft Threshold ft Heading 15
Runway 20 Length 7001 ft Width 150 ft
Elevation ft Threshold ft Heading 195
Runway 06 Length 3570 ft width 150 ft
Elevation 2 ft Threshold ft Heading 60
Runway 24 Length 3570 ft Width 150 ft
Elevation 1 ft Threshold ft Heading 240
Runway 11 Length 10104 ft width 150 ft
Elevation 4 ft Threshold ft Heading 106
Runway 29 Length 10104 ft Width 150 ft
Elevation 2 ft Threshold 304 ft Heading 286
Airport Frequencies
Type A/D Name NEW ORLEAN Frequency 123.85 MHZ
Type ATIS Name ATIS Frequency 127.55 MHZ
Type CLD Name CLNC DEL Frequency 127.2 MHZ
Type GND Name GND Frequency 121.9 MHZ
Type TWR Name TWR Frequency 119.5 MHZ
Type UNIC Name UNICOM Frequency 122.95 MHZ
Airport Navaids
Type NDB Name Kinte Frequency 338 KHZ
Airport Weather Information & NOTAM
ADDS - METARS form results

(2035 UTC 02 July 2022)
Data provider http://aviationweather.gov/metar/data/
 
METAR text: KMSY 022030Z 35003KT 10SM -RA FEW030CB FEW080 BKN120 OVC250 26/24 A3001 RMK AO2 LTG DSNT N-E TSE01 CB S MOV NE CB DSNT NE AND E P0004 T02610244
Conditions at: KMSY (NEW ORLEANS/INTL, LA, US) observed 2030 UTC 02 July 2022
Temperature: 26.1°C (79°F)
Dewpoint: 24.4°C (76°F) [RH = 90%]
Pressure (altimeter): 30.01 inches Hg (1016.3 mb)
Winds: from the N (350 degrees) at 3 MPH (3 knots; 1.5 m/s)
Visibility: 10 or more miles (16+ km)
Ceiling: 12000 feet AGL
Clouds: few clouds at 3000 feet AGL
few clouds at 8000 feet AGL
broken clouds at 12000 feet AGL
overcast cloud deck at 25000 feet AGL
Weather: -RA  (light rain)

METAR text: KMSY 022003Z 36005KT 10SM VCTS -RA FEW020 FEW032CB FEW085 BKN130 OVC250 26/23 A3001 RMK AO2 LTG DSNT ALQDS TSE01 OCNL LTGIC VC NE VCTS NE MOV NE CB S-SW MOV NE P0001 T02610233
Conditions at: KMSY (NEW ORLEANS/INTL, LA, US) observed 2003 UTC 02 July 2022
Temperature: 26.1°C (79°F)
Dewpoint: 23.3°C (74°F) [RH = 85%]
Pressure (altimeter): 30.01 inches Hg (1016.3 mb)
Winds: from the N (360 degrees) at 6 MPH (5 knots; 2.6 m/s)
Visibility: 10 or more miles (16+ km)
Ceiling: 13000 feet AGL
Clouds: few clouds at 2000 feet AGL
few clouds at 3200 feet AGL
few clouds at 8500 feet AGL
broken clouds at 13000 feet AGL
Weather: VCTS -RA  (thunderstorm in vicinity, light rain)

METAR text: KMSY 021953Z 03005KT 10SM -TSRA FEW032CB FEW085 BKN130 BKN250 26/23 A3001 RMK AO2 PK WND 16028/1926 WSHFT 1913 LTG DSNT NW-E RAB02 TSB14 SLP166 FRQ LTGICCG VC N-NE VCTS N-NE MOV NE P0028 T02610228
Conditions at: KMSY (NEW ORLEANS/INTL, LA, US) observed 1953 UTC 02 July 2022
Temperature: 26.1°C (79°F)
Dewpoint: 22.8°C (73°F) [RH = 82%]
Pressure (altimeter): 30.01 inches Hg (1016.3 mb)
[Sea-level pressure: 1016.6 mb]
Winds: from the NNE (30 degrees) at 6 MPH (5 knots; 2.6 m/s)
Visibility: 10 or more miles (16+ km)
Ceiling: 13000 feet AGL
Clouds: few clouds at 3200 feet AGL
few clouds at 8500 feet AGL
broken clouds at 13000 feet AGL
broken clouds at 25000 feet AGL
Weather: -TSRA  (light rain associated with thunderstorm(s))

METAR text: KMSY 021938Z 13005KT 6SM -TSRA SCT030CB BKN100 OVC250 27/22 A3003 RMK AO2 PK WND 16028/1926 WSHFT 1913 LTG DSNT N AND NW RAB02 TSB14 FRQ LTGICCG OHD-N TS OHD-N MOV NE P0027 T02670222
Conditions at: KMSY (NEW ORLEANS/INTL, LA, US) observed 1938 UTC 02 July 2022
Temperature: 26.7°C (80°F)
Dewpoint: 22.2°C (72°F) [RH = 76%]
Pressure (altimeter): 30.03 inches Hg (1017.0 mb)
Winds: from the SE (130 degrees) at 6 MPH (5 knots; 2.6 m/s)
Visibility: 6 miles (10 km)
Ceiling: 10000 feet AGL
Clouds: scattered clouds at 3000 feet AGL
broken clouds at 10000 feet AGL
overcast cloud deck at 25000 feet AGL
Weather: -TSRA  (light rain associated with thunderstorm(s))

Forecast for: KMSY (NEW ORLEANS/INTL, LA, US)
Text: KMSY 021932Z 0220/0324 17015G25KT P6SM VCTS BKN035CB
Forecast period: 2000 to 2200 UTC 02 July 2022
Forecast type: FROM: standard forecast or significant change
Winds: from the S (170 degrees) at 17 MPH (15 knots; 7.7 m/s)
gusting to 29 MPH (25 knots; 12.9 m/s)
Visibility: 6 or more miles (10+ km)
Ceiling: 3500 feet AGL
Clouds: broken clouds at 3500 feet AGL
Weather: VCTS  (thunderstorm in vicinity)
Text: TEMPO 0220/0222 VRB25KT 2SM TSRA BR BKN020CB
Forecast period: 2000 to 2200 UTC 02 July 2022
Forecast type: TEMPORARY: The following changes expected for less than half the time period
Winds: variable direction winds at 29 MPH (25 knots; 12.9 m/s)
Visibility: 2.00 miles (3.22 km)
Ceiling: 2000 feet AGL
Clouds: broken clouds at 2000 feet AGL
Weather: TSRA BR  (rain associated with thunderstorm(s), mist)
Text: FM022200 16005KT P6SM VCTS SCT025CB BKN100
Forecast period: 2200 UTC 02 July 2022 to 0100 UTC 03 July 2022
Forecast type: FROM: standard forecast or significant change
Winds: from the SSE (160 degrees) at 6 MPH (5 knots; 2.6 m/s)
Visibility: 6 or more miles (10+ km)
Ceiling: 10000 feet AGL
Clouds: scattered clouds at 2500 feet AGL
broken clouds at 10000 feet AGL
Weather: VCTS  (thunderstorm in vicinity)
Text: FM030100 VRB04KT P6SM SCT020 BKN110
Forecast period: 0100 UTC 03 July 2022 to 0000 UTC 04 July 2022
Forecast type: FROM: standard forecast or significant change
Winds: variable direction winds at 5 MPH (4 knots; 2.1 m/s)
Visibility: 6 or more miles (10+ km)
Ceiling: 11000 feet AGL
Clouds: scattered clouds at 2000 feet AGL
broken clouds at 11000 feet AGL
Weather: no significant weather forecast for this period